Terminal Aerodrome Forecast
Issued by NWS Sterling, VA

Current Version | Previous Version | Graphics & Text | Print | Product List | Glossary On
Versions: 1 2 3 4 5 6 7 8 9 10 11 12 13
000
FTUS41 KLWX 192300
TAFMRB
TAF
KMRB 192330Z 2000/2024 13003KT P6SM BKN050 OVC090
     FM200600 15004KT 5SM BR SCT025 BKN035
     FM200800 VRB03KT 2SM BR BKN015 BKN025
     FM201200 00000KT 6SM BR SCT008 BKN010
     FM201400 18005KT P6SM SCT040=

USA.gov is the U.S. government's official web portal to all federal, state and local government web resources and services.